• Join FlightAware (Why Join?)
  • Login
  • US Flag 
07:15PM EST


 

Airport Tracker/Info


-or-


 

Live Flight TrackerFlight Track Log ✈ AVN10 ✈ 07-Nov-2013 ✈ NVVV / VLI - YSSY / SYD

Flight Track Log - Related Links

Times and Time Zones

All times are in EST time to prevent confusion due to time zone crossing. See the AVN10 flight status page for this flight to view local times or setup timezone preferences in your user account.

Time Position Orientation Groundspeed Altitude Reporting Facility
EST Latitude Longitude Course Direction KTS MPH feet Rate Location/Type
03:07PM -18.0728 167.9176 226° Southwest  Level FlightAware Approximate
03:08PM -18.1350 167.8504 226° Southwest  Level FlightAware Approximate
03:09PM -18.1971 167.7831 226° Southwest  Level FlightAware Approximate
03:10PM -18.2592 167.7158 226° Southwest  Level FlightAware Approximate
03:11PM -18.3213 167.6485 226° Southwest  Level FlightAware Approximate
03:12PM -18.3834 167.5811 226° Southwest  Level FlightAware Approximate
03:13PM -18.4454 167.5137 226° Southwest  Level FlightAware Approximate
03:14PM -18.5074 167.4462 226° Southwest  Level FlightAware Approximate
03:15PM -18.5694 167.3786 226° Southwest  Level FlightAware Approximate
03:16PM -18.6314 167.3110 226° Southwest  Level FlightAware Approximate
03:17PM -18.6934 167.2434 226° Southwest  Level FlightAware Approximate
03:18PM -18.7553 167.1757 226° Southwest  Level FlightAware Approximate
03:19PM -18.8172 167.1080 226° Southwest  Level FlightAware Approximate
03:20PM -18.8791 167.0402 226° Southwest  Level FlightAware Approximate
03:21PM -18.9409 166.9723 226° Southwest  Level FlightAware Approximate
03:22PM -19.0028 166.9044 226° Southwest  Level FlightAware Approximate
03:23PM -19.0646 166.8365 226° Southwest  Level FlightAware Approximate
03:24PM -19.1263 166.7685 226° Southwest  Level FlightAware Approximate
03:25PM -19.1881 166.7005 226° Southwest  Level FlightAware Approximate
03:26PM -19.2498 166.6324 226° Southwest  Level FlightAware Approximate
03:27PM -19.3115 166.5642 226° Southwest  Level FlightAware Approximate
03:28PM -19.3732 166.4960 226° Southwest  Level FlightAware Approximate
03:29PM -19.4348 166.4278 226° Southwest  Level FlightAware Approximate
03:30PM -19.4965 166.3595 226° Southwest  Level FlightAware Approximate
03:31PM -19.5581 166.2912 226° Southwest  Level FlightAware Approximate
03:32PM -19.6196 166.2227 226° Southwest  Level FlightAware Approximate
03:33PM -19.6812 166.1543 226° Southwest  Level FlightAware Approximate
03:34PM -19.7427 166.0858 226° Southwest  Level FlightAware Approximate
03:35PM -19.8042 166.0172 226° Southwest  Level FlightAware Approximate
03:36PM -19.8657 165.9486 226° Southwest  Level FlightAware Approximate
03:37PM -19.9271 165.8799 226° Southwest  Level FlightAware Approximate
03:38PM -19.9885 165.8112 226° Southwest  Level FlightAware Approximate
03:39PM -20.0499 165.7425 226° Southwest  Level FlightAware Approximate
03:40PM -20.1113 165.6736 226° Southwest  Level FlightAware Approximate
03:41PM -20.1726 165.6048 227° Southwest  Level FlightAware Approximate
03:42PM -20.2339 165.5358 227° Southwest  Level FlightAware Approximate
03:43PM -20.3023 165.4749 212° Southwest  Level Estimated
03:44PM -20.3731 165.4171 217° Southwest  Level FlightAware Approximate
03:45PM -20.4438 165.3593 217° Southwest  Level FlightAware Approximate
03:46PM -20.5146 165.3014 217° Southwest  Level FlightAware Approximate
03:47PM -20.5853 165.2434 217° Southwest  Level FlightAware Approximate
03:48PM -20.6560 165.1855 218° Southwest  Level FlightAware Approximate
03:49PM -20.7267 165.1274 218° Southwest  Level FlightAware Approximate
03:50PM -20.7973 165.0693 218° Southwest  Level FlightAware Approximate
03:51PM -20.8680 165.0112 218° Southwest  Level FlightAware Approximate
03:52PM -20.9386 164.9530 218° Southwest  Level FlightAware Approximate
03:53PM -21.0092 164.8947 218° Southwest  Level FlightAware Approximate
03:54PM -21.0798 164.8364 218° Southwest  Level FlightAware Approximate
03:55PM -21.1504 164.7780 218° Southwest  Level FlightAware Approximate
03:55PM -22.2013 163.2763 219° Southwest 38,000  Level Aus ATC (Calculated)
03:57PM -22.3114 163.1903 216° Southwest  Level FlightAware Approximate
03:58PM -22.3781 163.1381 216° Southwest  Level FlightAware Approximate
03:58PM -22.4282 163.0094 218° Southwest 38,000  Level Aus ATC (Calculated)
03:59PM -22.4967 162.9286 218° Southwest 38,000  Level Aus ATC (Calculated)
04:00PM -22.5637 162.8768 216° Southwest  Level FlightAware Approximate
04:01PM -22.6306 162.8250 216° Southwest  Level FlightAware Approximate
04:01PM -22.6954 162.6934 218° Southwest 38,000  Level Aus ATC (Calculated)
04:03PM -22.8152 162.6014 215° Southwest  Level FlightAware Approximate
04:04PM -22.8824 162.5497 215° Southwest  Level FlightAware Approximate
04:05PM -22.9496 162.4980 215° Southwest  Level FlightAware Approximate
04:06PM -23.0168 162.4463 215° Southwest  Level FlightAware Approximate
04:07PM -23.0839 162.3945 215° Southwest  Level FlightAware Approximate
04:08PM -23.1510 162.3427 215° Southwest  Level FlightAware Approximate
04:09PM -23.2181 162.2907 215° Southwest  Level FlightAware Approximate
04:10PM -23.2852 162.2388 215° Southwest  Level FlightAware Approximate
04:11PM -23.3523 162.1868 215° Southwest  Level FlightAware Approximate
04:12PM -23.4193 162.1347 215° Southwest  Level FlightAware Approximate
04:12PM -23.5914 161.6188 216° Southwest 38,000  Level Aus ATC (Calculated)
04:13PM -23.4864 162.0826 215° Southwest  Level FlightAware Approximate
04:14PM -23.7019 161.5378 214° Southwest  Level FlightAware Approximate
04:14PM -23.7808 161.3886 215° Southwest 38,000  Level Aus ATC (Calculated)
04:16PM -23.8860 161.3124 213° Southwest  Level FlightAware Approximate
04:17PM -23.9547 161.2626 214° Southwest  Level FlightAware Approximate
04:18PM -24.0233 161.2128 214° Southwest  Level FlightAware Approximate
04:19PM -24.0919 161.1630 214° Southwest  Level FlightAware Approximate
04:20PM -24.1605 161.1130 214° Southwest  Level FlightAware Approximate
04:21PM -24.2290 161.0630 214° Southwest  Level FlightAware Approximate
04:22PM -24.2976 161.0130 214° Southwest  Level FlightAware Approximate
04:23PM -24.3661 160.9629 214° Southwest  Level FlightAware Approximate
04:24PM -24.4346 160.9128 214° Southwest  Level FlightAware Approximate
04:25PM -24.5031 160.8626 214° Southwest  Level FlightAware Approximate
04:26PM -24.5716 160.8123 214° Southwest  Level FlightAware Approximate
04:27PM -24.6401 160.7620 214° Southwest  Level FlightAware Approximate
04:28PM -24.7085 160.7117 214° Southwest  Level FlightAware Approximate
04:29PM -24.7770 160.6613 214° Southwest  Level FlightAware Approximate
04:30PM -24.8454 160.6108 214° Southwest  Level FlightAware Approximate
04:31PM -24.9138 160.5603 214° Southwest  Level FlightAware Approximate
04:32PM -24.9822 160.5097 214° Southwest  Level FlightAware Approximate
04:33PM -25.0505 160.4590 214° Southwest  Level FlightAware Approximate
04:34PM -25.1189 160.4083 214° Southwest  Level FlightAware Approximate
04:35PM -25.1872 160.3576 214° Southwest  Level FlightAware Approximate
04:36PM -25.2555 160.3068 214° Southwest  Level FlightAware Approximate
04:36PM -25.7770 159.5786 212° Southwest 38,000  Level Aus ATC (Calculated)
04:37PM -25.8469 159.5303 212° Southwest  Level FlightAware Approximate
04:37PM -25.9241 159.4769 212° Southwest 38,000  Level Aus ATC (Calculated)
04:39PM -26.0441 159.3937 212° Southwest  Level FlightAware Approximate
04:40PM -26.1133 159.3456 212° Southwest  Level FlightAware Approximate
04:41PM -26.1824 159.2975 212° Southwest  Level FlightAware Approximate
04:42PM -26.2516 159.2493 212° Southwest  Level FlightAware Approximate
04:43PM -26.3208 159.2011 212° Southwest  Level FlightAware Approximate
04:44PM -26.3899 159.1528 212° Southwest  Level FlightAware Approximate
04:45PM -26.4590 159.1045 212° Southwest  Level FlightAware Approximate
04:46PM -26.5281 159.0560 212° Southwest  Level FlightAware Approximate
04:47PM -26.5972 159.0076 212° Southwest  Level FlightAware Approximate
04:48PM -26.6663 158.9590 212° Southwest  Level FlightAware Approximate
04:49PM -26.7353 158.9105 212° Southwest  Level FlightAware Approximate
04:50PM -26.8044 158.8618 212° Southwest  Level FlightAware Approximate
04:51PM -26.8734 158.8131 212° Southwest  Level FlightAware Approximate
04:52PM -26.9424 158.7644 212° Southwest  Level FlightAware Approximate
04:53PM -27.0114 158.7155 212° Southwest  Level FlightAware Approximate
04:54PM -27.0804 158.6667 212° Southwest  Level FlightAware Approximate
04:55PM -27.1493 158.6177 212° Southwest  Level FlightAware Approximate
04:56PM -27.2183 158.5687 212° Southwest  Level FlightAware Approximate
04:57PM -27.2872 158.5197 212° Southwest  Level FlightAware Approximate
04:58PM -27.3561 158.4706 212° Southwest  Level FlightAware Approximate
04:58PM -28.2184 157.8494 33° Northeast 38,000  Level Aus ATC (Calculated)
05:00PM -28.3340 157.7653 213° Southwest  Level FlightAware Approximate
05:00PM -28.4127 157.7078 33° Northeast 38,000  Level Aus ATC (Calculated)
05:02PM -28.5271 157.6242 213° Southwest  Level FlightAware Approximate
05:02PM -28.6069 157.5656 33° Northeast 38,000  Level Aus ATC (Calculated)
05:03PM -28.5956 157.5739 213° Southwest  Level FlightAware Approximate
05:04PM -28.7286 157.4762 213° Southwest  Level FlightAware Approximate
05:05PM -28.8009 157.4230 213° Southwest  Level FlightAware Approximate
05:05PM -28.9463 157.3156 33° Northeast 38,000  Level Aus ATC (Calculated)
05:05PM -28.9948 157.2798 33° Northeast 38,000  Level Aus ATC (Calculated)
05:06PM -29.0432 157.2439 33° Northeast 38,000  Level Aus ATC (Calculated)
05:08PM -29.1791 157.1430 213° Southwest  Level FlightAware Approximate
05:08PM -27.7024 158.2238 213° Southwest 410 472 38,000  Level Aus ATC (RADAR)
05:09PM -27.7432 158.1939 213° Southwest 424 488 38,000  Level Aus ATC (RADAR)
05:09PM -27.7977 158.1526 214° Southwest 411 473 38,000  Level Aus ATC (RADAR)
05:10PM -27.8720 158.0994 212° Southwest 417 480 38,000  Level Aus ATC (RADAR)
05:11PM -27.9280 158.0576 213° Southwest 416 479 38,000  Level Aus ATC (RADAR)
05:11PM -27.9944 158.0097 212° Southwest 420 483 38,000  Level Aus ATC (RADAR)
05:12PM -28.0535 157.9679 212° Southwest 426 490 38,000  Level Aus ATC (RADAR)
05:13PM -28.2063 157.8589 212° Southwest 433 498 38,000  Level Aus ATC (RADAR)
05:14PM -28.2479 157.8286 213° Southwest 432 497 38,000  Level Aus ATC (RADAR)
05:14PM -28.3057 157.7860 213° Southwest 428 493 38,000  Level Aus ATC (RADAR)
05:15PM -28.3980 157.7184 213° Southwest 430 495 38,000  Level Aus ATC (RADAR)
05:16PM -28.4568 157.6753 213° Southwest 430 495 38,000  Level Aus ATC (RADAR)
05:17PM -28.5404 157.6138 213° Southwest 430 495 38,000  Level Aus ATC (RADAR)
05:17PM -28.5826 157.5833 212° Southwest 431 496 38,000  Level Aus ATC (RADAR)
05:18PM -28.7173 157.4847 213° Southwest 432 497 38,000  Level Aus ATC (RADAR)
05:19PM -28.7598 157.4538 213° Southwest 433 498 38,000  Level Aus ATC (RADAR)
05:19PM -28.8185 157.4103 213° Southwest 433 498 38,000  Level Aus ATC (RADAR)
05:20PM -28.9199 157.3354 213° Southwest 434 499 38,000  Level Aus ATC (RADAR)
05:21PM -28.9793 157.2917 213° Southwest 436 502 38,000  Level Aus ATC (RADAR)
05:22PM -29.0731 157.2226 213° Southwest 438 504 38,000  Level Aus ATC (RADAR)
05:23PM -29.2086 157.1214 213° Southwest 438 504 38,000  Level Aus ATC (RADAR)
05:24PM -29.2510 157.0896 213° Southwest 439 505 38,000  Level Aus ATC (RADAR)
05:24PM -29.3116 157.0447 213° Southwest 442 509 38,000 120 Level Aus ATC (RADAR)
05:25PM -29.3884 156.9872 213° Southwest 441 507 38,200 120 Climbing Aus ATC (RADAR)
05:26PM -29.4471 156.9430 213° Southwest 438 504 38,200 -180 Level Aus ATC (RADAR)
05:26PM -29.5072 156.8982 213° Southwest 440 506 38,000 -180 Descending Aus ATC (RADAR)
05:27PM -29.5673 156.8533 213° Southwest 442 509 38,000 60 Level Aus ATC (RADAR)
05:28PM -29.6881 156.7623 213° Southwest 446 513 38,200 120 Climbing Aus ATC (RADAR)
05:28PM -29.7311 156.7296 213° Southwest 446 513 38,200 -120 Level Aus ATC (RADAR)
05:29PM -29.7745 156.6971 213° Southwest 446 513 38,100  Descending Aus ATC (RADAR)
05:29PM -29.8343 156.6521 213° Southwest 443 510 38,200 60 Climbing Aus ATC (RADAR)
05:30PM -29.9100 156.5948 213° Southwest 437 503 38,200 -120 Level Aus ATC (RADAR)
05:31PM -29.9691 156.5499 213° Southwest 437 503 38,100  Descending Aus ATC (RADAR)
05:31PM -30.0457 156.4921 213° Southwest 438 504 38,200 60 Climbing Aus ATC (RADAR)
05:32PM -30.0876 156.4601 214° Southwest 437 503 38,200 -120 Level Aus ATC (RADAR)
05:33PM -30.2143 156.3635 213° Southwest 439 505 38,100 -60 Descending Aus ATC (RADAR)
05:33PM -30.2558 156.3319 213° Southwest 435 501 38,100  Level Aus ATC (RADAR)
05:34PM -30.2981 156.2997 213° Southwest 435 501 38,100  Level Aus ATC (RADAR)
05:34PM -30.3568 156.2547 213° Southwest 437 503 38,100  Level Aus ATC (RADAR)
05:35PM -30.4326 156.1967 213° Southwest 436 502 38,100  Level Aus ATC (RADAR)
05:36PM -30.4913 156.1516 213° Southwest 435 501 38,100  Level Aus ATC (RADAR)
05:37PM -30.5666 156.0940 213° Southwest 434 499 38,100  Level Aus ATC (RADAR)
05:37PM -30.6084 156.0619 213° Southwest 434 499 38,100  Level Aus ATC (RADAR)
05:38PM -30.7248 155.9719 214° Southwest 432 497 38,100  Level Aus ATC (RADAR)
05:39PM -30.7665 155.9397 214° Southwest 432 497 38,100  Level Aus ATC (RADAR)
05:39PM -30.8246 155.8950 213° Southwest 431 496 38,100  Level Aus ATC (RADAR)
05:40PM -30.9066 155.8481 206° Southwest 439 505 38,100  Level Aus ATC (RADAR)
05:40PM -30.9715 155.8123 205° Southwest 442 509 38,100  Level Aus ATC (RADAR)
05:41PM -31.0638 155.7610 205° Southwest 443 510 38,100  Level Aus ATC (RADAR)
05:42PM -31.1101 155.7350 206° Southwest 444 511 38,100  Level Aus ATC (RADAR)
05:42PM -31.1748 155.6986 206° Southwest 444 511 38,100 -180 Level Aus ATC (RADAR)
05:42PM -31.1710 155.7020 206° Southwest 444 511 38,000 -180 Descending FlightAware
05:43PM -31.2560 155.6530 206° Southwest 445 512 38,000 60 Level FlightAware
05:43PM -31.2857 155.6360 206° Southwest 445 512 38,100 120 Climbing Aus ATC (RADAR)
05:44PM -31.3321 155.6100 206° Southwest 445 512 38,100 -180 Level Aus ATC (RADAR)
05:44PM -31.3490 155.6010 206° Southwest 445 512 38,000  Descending FlightAware
05:44PM -31.3970 155.5735 206° Southwest 445 512 38,100 60 Climbing Aus ATC (RADAR)
05:45PM -31.4805 155.5266 206° Southwest 445 512 38,100 -180 Level Aus ATC (RADAR)
05:45PM -31.4680 155.5340 206° Southwest 446 513 38,000  Descending FlightAware
05:46PM -31.5460 155.4897 206° Southwest 448 516 38,100  Climbing Aus ATC (RADAR)
05:46PM -31.5760 155.4740 206° Southwest 446 513 38,000  Descending FlightAware
05:47PM -31.6758 155.4160 206° Southwest 444 511 38,100  Climbing Aus ATC (RADAR)
05:47PM -31.6520 155.4320 206° Southwest 446 513 38,000 -120 Descending FlightAware
05:48PM -31.7470 155.3800 205° Southwest 446 513 38,000  Level FlightAware
05:48PM -31.7850 155.3590 205° Southwest 446 513 38,000 120 Level FlightAware
05:48PM -31.8604 155.3109 205° Southwest 441 507 38,100 120 Climbing Aus ATC (RADAR)
05:49PM -31.9161 155.2788 205° Southwest 445 512 38,100 -180 Level Aus ATC (RADAR)
05:49PM -31.8620 155.3170 205° Southwest 446 513 38,000  Descending FlightAware
05:50PM -32.0634 155.1950 205° Southwest 443 510 38,100  Climbing Aus ATC (RADAR)
05:50PM -32.0770 155.1880 205° Southwest 444 511 38,000 -120 Descending FlightAware
05:51PM -32.1580 155.1410 205° Southwest 444 511 38,000 60 Level FlightAware
05:52PM -32.2203 155.1051 205° Southwest 442 509 38,100 60 Climbing Aus ATC (RADAR)
05:52PM -32.2667 155.0783 205° Southwest 445 512 38,100 -180 Level Aus ATC (RADAR)
05:52PM -32.2770 155.0730 205° Southwest 445 512 38,000 -120 Descending FlightAware
05:53PM -32.3510 155.0300 205° Southwest 445 512 38,000 120 Level FlightAware
05:53PM -32.3774 155.0148 205° Southwest 443 510 38,100 120 Climbing Aus ATC (RADAR)
05:54PM -32.4236 154.9881 205° Southwest 445 512 38,100 -180 Level Aus ATC (RADAR)
05:54PM -32.4440 154.9760 206° Southwest 444 511 38,000  Descending FlightAware
05:54PM -32.4695 154.9614 206° Southwest 444 511 38,100  Climbing Aus ATC (RADAR)
05:54PM -32.4890 154.9510 206° Southwest 444 511 38,000  Descending FlightAware
05:55PM -32.5339 154.9244 206° Southwest 442 509 38,100  Climbing Aus ATC (RADAR)
05:55PM -32.5550 154.9130 206° Southwest 444 511 38,000  Descending FlightAware
05:55PM -32.6165 154.8764 206° Southwest 441 507 38,100  Climbing Aus ATC (RADAR)
05:56PM -32.6470 154.8590 206° Southwest 441 507 38,000 -120 Descending FlightAware
05:56PM -32.7320 154.8100 206° Southwest 440 506 38,000 60 Level FlightAware
05:57PM -32.8172 154.7592 206° Southwest 439 505 38,100  Climbing Aus ATC (RADAR)
05:57PM -32.8220 154.7570 206° Southwest 438 504 38,000 -180 Descending FlightAware
05:58PM -32.8700 154.7290 206° Southwest 438 504 38,000 60 Level FlightAware
05:58PM -32.9250 154.6959 206° Southwest 435 501 38,100 120 Climbing Aus ATC (RADAR)
05:59PM -32.9703 154.6694 206° Southwest 436 502 38,100 -180 Level Aus ATC (RADAR)
05:59PM -32.9820 154.6630 206° Southwest 437 503 38,000  Descending FlightAware
05:59PM -33.0155 154.6427 206° Southwest 437 503 38,100  Climbing Aus ATC (RADAR)
05:59PM -33.0530 154.6210 206° Southwest 436 502 38,000  Descending FlightAware
06:00PM -33.0792 154.6056 206° Southwest 437 503 38,100  Climbing Aus ATC (RADAR)
06:00PM -33.1420 154.5690 206° Southwest 429 494 38,000  Descending FlightAware
06:00PM -33.1692 154.5522 206° Southwest 436 502 38,100  Climbing Aus ATC (RADAR)
06:01PM -33.2230 154.5220 206° Southwest 429 494 38,000  Descending FlightAware
06:01PM -33.2331 154.5152 206° Southwest 437 503 38,100 120 Climbing Aus ATC (RADAR)
06:02PM -33.3142 154.4672 206° Southwest 436 502 38,100 -120 Level Aus ATC (RADAR)
06:02PM -33.3270 154.4600 206° Southwest 439 505 38,000 -240 Descending FlightAware
06:02PM -33.3580 154.4310 218° Southwest 440 506 38,000  Level FlightAware
06:03PM -33.3840 154.3830 237° Southwest 440 506 38,000 60 Level FlightAware
06:03PM -33.4261 154.2724 237° Southwest 438 504 38,100  Climbing Aus ATC (RADAR)
06:03PM -33.4260 154.2770 237° Southwest 440 506 38,000 -240 Descending FlightAware
06:04PM -33.4470 154.2220 245° Southwest 440 506 38,000  Level FlightAware
06:05PM -33.4920 154.1080 245° Southwest 440 506 38,000 60 Level FlightAware
06:05PM -33.4994 154.0859 245° Southwest 435 501 38,100 60 Climbing Aus ATC (RADAR)
06:06PM -33.5386 153.9864 245° Southwest 439 505 38,100 -120 Level Aus ATC (RADAR)
06:06PM -33.5500 153.9600 245° Southwest 442 509 38,000  Descending FlightAware
06:06PM -33.5686 153.9086 245° Southwest 441 507 38,100  Climbing Aus ATC (RADAR)
06:07PM -33.6000 153.8320 245° Southwest 444 511 38,000  Descending FlightAware
06:07PM -33.6079 153.8087 245° Southwest 442 509 38,100 180 Climbing Aus ATC (RADAR)
06:07PM -33.6288 153.7532 245° Southwest 440 506 38,100 -180 Level Aus ATC (RADAR)
06:07PM -33.6360 153.7380 245° Southwest 444 511 38,000 -120 Descending FlightAware
06:08PM -33.6730 153.6440 245° Southwest 445 512 38,000 60 Level FlightAware
06:09PM -33.7032 153.5634 245° Southwest 443 510 38,100  Climbing Aus ATC (RADAR)
06:09PM -33.7200 153.5210 245° Southwest 445 512 38,000  Descending FlightAware
06:09PM -33.7248 153.5073 245° Southwest 444 511 38,100  Climbing Aus ATC (RADAR)
06:10PM -33.7510 153.4400 245° Southwest 443 510 38,000  Descending FlightAware
06:10PM -33.7549 153.4293 245° Southwest 442 509 38,100 60 Climbing Aus ATC (RADAR)
06:11PM -33.7974 153.3177 245° Southwest 440 506 38,100 -120 Level Aus ATC (RADAR)
06:11PM -33.7970 153.3210 245° Southwest 443 510 38,000 -1,380 Descending FlightAware
06:11PM -33.8271 153.2403 245° Southwest 438 504 37,300 -1,380 Descending Aus ATC (RADAR)
06:11PM -33.8260 153.2430 245° Southwest 438 504 37,200 -3,120 Descending FlightAware
06:12PM -33.8649 153.1404 245° Southwest 441 507 35,000 -3,240 Descending Aus ATC (RADAR)
06:12PM -33.8840 153.0900 245° Southwest 447 514 33,700 -3,360 Descending FlightAware
06:12PM -33.8864 153.0839 245° Southwest 447 514 33,600 -2,760 Descending Aus ATC (RADAR)
06:13PM -33.9280 152.9760 245° Southwest 444 511 31,400 -2,580 Descending FlightAware
06:14PM -33.9593 152.8918 245° Southwest 445 512 30,000 -2,160 Descending Aus ATC (RADAR)
06:14PM -33.9620 152.8840 246° West 443 510 29,800 -2,400 Descending FlightAware
06:14PM -33.9804 152.8359 246° West 442 509 29,000 -2,940 Descending Aus ATC (RADAR)
06:14PM -33.9965 152.7937 245° Southwest 442 509 28,100 -2,520 Descending FlightAware ADS-B
06:15PM -34.0301 152.7040 245° Southwest 433 498 26,500 -2,220 Descending Aus ATC (RADAR)
06:15PM -34.0430 152.6710 245° Southwest 422 486 25,900 -2,340 Descending FlightAware
06:16PM -34.0698 152.5982 245° Southwest 414 476 24,600 -2,400 Descending Aus ATC (RADAR)
06:16PM -34.0760 152.5700 263° West 413 475 24,100 -2,340 Descending FlightAware
06:17PM -34.0778 152.5168 263° West 421 484 23,200 -2,700 Descending Aus ATC (RADAR)
06:17PM -34.0744 152.4844 271° West 409 471 22,600 -2,280 Descending FlightAware ADS-B
06:17PM -34.0677 152.4166 271° West 400 460 21,500 -2,340 Descending Aus ATC (RADAR)
06:17PM -34.0652 152.3864 271° West 399 459 20,900 -2,460 Descending FlightAware ADS-B
06:18PM -34.0589 152.3194 276° West 387 445 19,700 -2,280 Descending FlightAware ADS-B
06:19PM -34.0527 152.2543 276° West 379 436 18,600 -2,220 Descending FlightAware ADS-B
06:19PM -34.0467 152.1919 277° West 371 427 17,500 -1,920 Descending FlightAware ADS-B
06:20PM -34.0402 152.1244 277° West 359 413 16,600 -1,200 Descending FlightAware ADS-B
06:20PM -34.0339 152.0594 277° West 325 374 16,200 -1,260 Descending FlightAware ADS-B
06:21PM -34.0273 151.9931 277° West 318 366 15,100 -1,620 Descending FlightAware ADS-B
06:21PM -34.0210 151.9306 277° West 313 360 14,300 -1,560 Descending FlightAware ADS-B
06:22PM -34.0154 151.8757 277° West 308 354 13,400 -1,620 Descending FlightAware ADS-B
06:22PM -34.0093 151.8157 277° West 301 346 12,500 -1,440 Descending FlightAware ADS-B
06:23PM -34.0040 151.7610 277° West 296 341 11,700 -1,500 Descending FlightAware
06:23PM -34.0062 151.7844 97° East 291 335 11,100 -1,680 Descending FlightAware ADS-B (YWST)
06:24PM -33.9931 151.6568 277° West 288 331 10,000 -1,740 Descending FlightAware ADS-B (YWST)
06:24PM -33.9906 151.6314 277° West 289 333 9,400 -1,860 Descending FlightAware ADS-B
06:25PM -33.9866 151.5935 277° West 288 331 8,700 -1,200 Descending FlightAware ADS-B
06:25PM -33.9830 151.5595 277° West 274 315 8,500 -660 Descending FlightAware ADS-B
06:25PM -33.9819 151.5490 277° West 267 307 8,300 -840 Descending FlightAware ADS-B (YWST)
06:26PM -33.9758 151.4917 277° West 252 290 7,800 -1,020 Descending FlightAware ADS-B (YWST)
06:26PM -33.9736 151.4727 278° West 249 287 7,600 -780 Descending FlightAware ADS-B
06:26PM -33.9713 151.4538 278° West 245 282 7,500 -600 Descending FlightAware ADS-B
06:27PM -33.9688 151.4329 278° West 237 273 7,300 -540 Descending FlightAware ADS-B (YWST)
06:27PM -33.9660 151.4086 278° West 237 273 7,200 -600 Descending FlightAware ADS-B (YWST)
06:27PM -33.9629 151.3821 278° West 237 273 6,900 -480 Descending FlightAware ADS-B
06:28PM -33.9604 151.3595 278° West 237 273 6,900 180 Level FlightAware ADS-B (YWST)
06:28PM -33.9597 151.3477 274° West 239 275 7,000  Climbing FlightAware ADS-B (YWST)
06:28PM -33.9625 151.3339 256° West 236 272 6,900 -300 Descending FlightAware ADS-B (YWST)
06:28PM -33.9686 151.3231 236° Southwest 232 267 6,900 -300 Level FlightAware ADS-B (YWST)
06:28PM -33.9770 151.3157 216° Southwest 229 264 6,800 -660 Descending FlightAware ADS-B (YWST)
06:28PM -33.9838 151.3129 199° South 229 264 6,700 -1,200 Descending FlightAware ADS-B (YWST)
06:29PM -33.9770 151.3157 19° North 230 265 6,500 -1,020 Descending FlightAware ADS-B
06:29PM -34.0062 151.3163 179° South 235 270 6,400 -840 Descending FlightAware ADS-B
06:29PM -34.0233 151.3237 160° South 237 273 6,100 -1,020 Descending FlightAware ADS-B (YWST)
06:29PM -34.0437 151.3324 160° South 237 273 5,800 -1,080 Descending FlightAware ADS-B (YWST)
06:30PM -34.0627 151.3405 161° South 235 270 5,400 -1,140 Descending FlightAware ADS-B (YWST)
06:30PM -34.0804 151.3480 161° South 234 269 5,100 -900 Descending FlightAware ADS-B (YWST)
06:30PM -34.1055 151.3530 171° South 230 265 4,800 -900 Descending FlightAware ADS-B
06:31PM -34.1120 151.3502 200° South 224 258 4,600 -900 Descending FlightAware ADS-B
06:31PM -34.1219 151.3401 220° Southwest 220 253 4,500 -1,080 Descending FlightAware ADS-B (YWST)
06:31PM -34.1269 151.3318 234° Southwest 217 250 4,300 -1,320 Descending FlightAware ADS-B (YWST)
06:31PM -34.1301 151.3224 247° West 217 250 4,100 -1,200 Descending FlightAware ADS-B (YWST)
06:31PM -34.1364 151.2966 254° West 212 244 3,700 -1,080 Descending FlightAware ADS-B (YWST)
06:31PM -34.1362 151.2866 271° West 208 239 3,600 -960 Descending FlightAware ADS-B (YWST)
06:32PM -34.1348 151.2812 288° West 206 237 3,500 -720 Descending FlightAware ADS-B
06:32PM -34.1279 151.2705 308° West 200 230 3,400 -900 Descending FlightAware ADS-B
06:32PM -34.1170 151.2594 320° Northwest 196 226 3,100 -900 Descending FlightAware ADS-B
06:32PM -34.1069 151.2491 320° Northwest 186 214 2,900 -900 Descending FlightAware ADS-B (YWST)
06:33PM -34.0888 151.2307 320° Northwest 180 207 2,500 -900 Descending FlightAware ADS-B
06:33PM -34.0834 151.2260 324° Northwest 181 208 2,400 -840 Descending FlightAware ADS-B
06:33PM -34.0684 151.2191 339° North 186 214 2,100 -960 Descending FlightAware ADS-B
06:33PM -34.0559 151.2160 348° North 179 206 1,900 -960 Descending FlightAware ADS-B (YWST)
06:34PM -34.0402 151.2122 348° North 156 180 1,600 -1,140 Descending FlightAware ADS-B
06:34PM -34.0170 151.2057 347° North 141 162 900 -1,080 Descending FlightAware ADS-B
06:35PM -34.0042 151.2026 349° North 138 159 600 -900 Descending FlightAware ADS-B
06:35PM -33.9945 151.2000 347° North 140 161 300 -300 Descending FlightAware ADS-B
06:36PM -33.9643 151.1922 347° North 137 158 -180 Descending Aus ATC (RADAR)
06:36PM -33.9630 151.1920 347° North 120 138 120 Level FlightAware
06:36PM -33.9535 151.1889 347° North 49 56 100 120 Climbing Aus ATC (RADAR)